Time;durP1;ratioP1;P1;durP2;ratioP2;P2;SDS_P1;SDS_P2;PMS_P1;PMS_P2;Temp;Humidity;BMP_temperature;BMP_pressure;BME280_temperature;BME280_humidity;BME280_pressure;Samples;Min_cycle;Max_cycle;Signal;HPM_P1;HPM_P2
2023/08/27 00:00:14;;;;;;;4.07;1.80;;;;;;;17.90;64.31;100922.25;5071802;28;20043;-68
2023/08/27 00:02:39;;;;;;;4.35;1.83;;;;;;;17.89;64.72;100923.41;5067039;28;20052;-67
2023/08/27 00:05:07;;;;;;;2.58;1.80;;;;;;;17.82;65.25;100914.50;5076221;28;20080;-66
2023/08/27 00:07:33;;;;;;;2.75;1.98;;;;;;;17.81;65.29;100910.03;5088606;28;20481;-67
2023/08/27 00:09:58;;;;;;;4.97;2.35;;;;;;;17.70;65.69;100913.22;5075193;28;20170;-67
2023/08/27 00:12:24;;;;;;;2.47;2.10;;;;;;;17.63;66.25;100885.50;5091496;28;20051;-67
2023/08/27 00:14:49;;;;;;;3.55;2.00;;;;;;;17.56;67.20;100885.03;5066918;28;20078;-66
2023/08/27 00:17:14;;;;;;;2.20;1.83;;;;;;;17.59;66.99;100871.25;5065422;28;20067;-67
2023/08/27 00:19:40;;;;;;;3.53;1.92;;;;;;;17.58;67.86;100871.56;5072303;28;20464;-67
2023/08/27 00:22:05;;;;;;;4.78;2.00;;;;;;;17.53;67.46;100863.22;5067767;28;20048;-66
2023/08/27 00:24:32;;;;;;;2.70;1.63;;;;;;;17.53;67.87;100846.38;5054254;28;20116;-67
2023/08/27 00:26:57;;;;;;;3.38;1.95;;;;;;;17.60;68.03;100841.19;5069656;28;20024;-66
2023/08/27 00:29:22;;;;;;;3.17;1.90;;;;;;;17.57;68.32;100842.66;5071245;28;20028;-67
2023/08/27 00:31:48;;;;;;;1.90;1.50;;;;;;;17.56;68.71;100828.91;5088674;28;20031;-66
2023/08/27 00:34:13;;;;;;;3.72;1.83;;;;;;;17.50;68.77;100841.34;5064978;28;20028;-67
2023/08/27 00:36:38;;;;;;;2.95;1.88;;;;;;;17.48;68.46;100827.59;5051289;28;20028;-67
2023/08/27 00:39:05;;;;;;;1.90;1.80;;;;;;;17.51;68.75;100824.19;5051774;28;20065;-66
2023/08/27 00:41:31;;;;;;;3.45;2.05;;;;;;;17.42;68.77;100821.22;5052043;28;20041;-67
2023/08/27 00:43:56;;;;;;;3.03;1.90;;;;;;;17.45;69.02;100827.34;5065029;28;20545;-67
2023/08/27 00:46:21;;;;;;;2.65;1.67;;;;;;;17.46;68.46;100823.44;5071132;28;20545;-66
2023/08/27 00:48:47;;;;;;;4.45;1.80;;;;;;;17.40;69.02;100822.66;5071621;28;20033;-68
2023/08/27 00:51:12;;;;;;;2.13;1.77;;;;;;;17.48;69.50;100818.34;5063577;28;20071;-67
2023/08/27 00:53:38;;;;;;;2.42;1.83;;;;;;;17.44;69.47;100820.91;5069524;28;20055;-67
2023/08/27 00:56:04;;;;;;;1.55;1.38;;;;;;;17.40;69.19;100831.91;5073776;28;20408;-67
2023/08/27 00:58:29;;;;;;;2.10;1.63;;;;;;;17.42;69.13;100807.19;5067529;28;20058;-67
2023/08/27 01:00:55;;;;;;;2.28;1.50;;;;;;;17.41;69.53;100818.75;5071660;28;20020;-67
2023/08/27 01:03:20;;;;;;;2.15;1.60;;;;;;;17.43;69.66;100813.66;5073953;28;20165;-67
2023/08/27 01:05:45;;;;;;;3.55;1.50;;;;;;;17.42;69.06;100818.44;5067651;28;20059;-67
2023/08/27 01:08:26;;;;;;;2.60;1.40;;;;;;;17.38;69.18;100820.16;5068438;28;20052;-67
2023/08/27 01:11:09;;;;;;;3.05;1.83;;;;;;;17.36;69.47;100824.38;5059918;28;20522;-67
2023/08/27 01:13:52;;;;;;;1.58;1.42;;;;;;;17.34;69.39;100807.03;5077687;28;20036;-67
2023/08/27 01:16:20;;;;;;;2.80;1.83;;;;;;;17.30;69.35;100809.59;5067335;28;20040;-67
2023/08/27 01:18:46;;;;;;;2.72;1.67;;;;;;;17.34;69.61;100793.84;5061765;28;20049;-67
2023/08/27 01:21:22;;;;;;;2.42;1.60;;;;;;;17.28;69.82;100803.44;5070260;28;20032;-67
2023/08/27 01:23:48;;;;;;;1.98;1.60;;;;;;;17.29;69.32;100805.13;5068644;28;20055;-67
2023/08/27 01:26:35;;;;;;;2.08;1.50;;;;;;;17.28;69.60;100805.41;5054332;28;20032;-67
2023/08/27 01:29:32;;;;;;;2.03;1.70;;;;;;;17.29;69.30;100802.31;5059196;28;20053;-67
2023/08/27 01:31:59;;;;;;;1.85;1.55;;;;;;;17.26;69.12;100808.53;5066263;28;20443;-67
2023/08/27 01:34:26;;;;;;;3.67;1.50;;;;;;;17.17;69.65;100799.94;5075289;28;20028;-67
2023/08/27 01:36:51;;;;;;;1.70;1.60;;;;;;;17.15;69.58;100795.75;5064597;28;20029;-68
2023/08/27 01:39:17;;;;;;;4.72;1.90;;;;;;;17.18;69.65;100795.16;5054215;28;20079;-67
2023/08/27 01:41:42;;;;;;;2.22;1.80;;;;;;;17.18;69.97;100790.38;5074388;28;20048;-67
2023/08/27 01:44:07;;;;;;;2.22;1.52;;;;;;;17.11;69.82;100789.91;5088161;28;20514;-67
2023/08/27 01:46:33;;;;;;;2.50;1.50;;;;;;;17.15;69.48;100798.56;5061679;28;20078;-67
2023/08/27 01:48:58;;;;;;;3.30;1.60;;;;;;;17.12;69.71;100801.97;5062230;28;20098;-67
2023/08/27 01:51:23;;;;;;;2.70;1.60;;;;;;;17.03;69.59;100793.38;5055119;28;20048;-67
2023/08/27 01:53:48;;;;;;;3.95;1.50;;;;;;;17.07;69.91;100793.63;5054152;28;20381;-67
2023/08/27 01:56:14;;;;;;;2.20;1.48;;;;;;;17.03;70.07;100795.34;5081692;28;20032;-66
2023/08/27 01:58:40;;;;;;;1.80;1.48;;;;;;;17.03;70.12;100789.75;5058612;28;20040;-66
2023/08/27 02:01:05;;;;;;;3.97;1.70;;;;;;;17.06;69.73;100786.34;5067347;28;20043;-66
2023/08/27 02:03:31;;;;;;;1.88;1.33;;;;;;;17.08;69.75;100779.28;5070713;28;20499;-66
2023/08/27 02:05:56;;;;;;;2.22;1.67;;;;;;;17.09;69.88;100783.75;5072755;28;20032;-66
2023/08/27 02:08:21;;;;;;;3.83;1.85;;;;;;;17.14;69.45;100788.50;5072938;28;20036;-66
2023/08/27 02:10:50;;;;;;;1.65;1.50;;;;;;;17.03;69.29;100798.16;5074397;28;20059;-66
2023/08/27 02:13:16;;;;;;;2.53;1.58;;;;;;;17.00;69.69;100788.34;5074447;28;20032;-67
2023/08/27 02:15:44;;;;;;;3.25;1.50;;;;;;;17.00;70.05;100793.13;5065476;28;20075;-66
2023/08/27 02:18:09;;;;;;;1.90;1.70;;;;;;;16.96;69.78;100797.66;5065991;28;20442;-66
2023/08/27 02:20:35;;;;;;;3.25;1.80;;;;;;;16.92;70.11;100794.63;5074211;28;20032;-66
2023/08/27 02:23:00;;;;;;;2.13;1.83;;;;;;;16.95;70.44;100791.22;5073747;28;20491;-66
2023/08/27 02:25:25;;;;;;;2.85;1.85;;;;;;;17.00;69.80;100793.13;5071578;28;20036;-66
2023/08/27 02:27:51;;;;;;;2.67;1.90;;;;;;;16.95;69.41;100796.00;5054581;28;20032;-66
2023/08/27 02:30:16;;;;;;;1.92;1.73;;;;;;;16.96;69.71;100787.28;5053495;28;20025;-67
2023/08/27 02:32:41;;;;;;;3.05;1.90;;;;;;;17.02;69.51;100790.88;5053038;28;20380;-67
2023/08/27 02:35:07;;;;;;;4.03;2.00;;;;;;;16.99;69.99;100791.47;5068928;28;20082;-66
2023/08/27 02:37:32;;;;;;;2.85;2.10;;;;;;;16.95;70.28;100796.00;5075390;28;20381;-67
2023/08/27 02:39:57;;;;;;;3.65;2.22;;;;;;;16.93;70.73;100793.47;5074053;28;20025;-67
2023/08/27 02:42:23;;;;;;;2.65;2.10;;;;;;;16.98;70.90;100798.19;5065112;28;20059;-67
2023/08/27 02:44:48;;;;;;;3.22;2.10;;;;;;;16.91;71.03;100790.97;5080310;28;20483;-66
2023/08/27 02:47:13;;;;;;;3.22;2.33;;;;;;;16.91;70.81;100792.94;5061784;28;20028;-67
2023/08/27 02:49:39;;;;;;;4.38;2.20;;;;;;;16.86;71.22;100801.44;5052932;28;20486;-66
2023/08/27 02:52:04;;;;;;;2.88;2.03;;;;;;;16.82;71.33;100792.78;5057785;28;20161;-67
2023/08/27 02:54:30;;;;;;;3.42;2.03;;;;;;;16.78;71.98;100797.31;5072795;28;20028;-67
2023/08/27 02:56:55;;;;;;;2.50;2.03;;;;;;;16.74;72.22;100801.81;5052332;28;20116;-67
2023/08/27 02:59:20;;;;;;;3.60;2.20;;;;;;;16.79;72.47;100792.53;5053366;28;20040;-66
2023/08/27 03:01:46;;;;;;;2.85;2.20;;;;;;;16.74;72.65;100789.75;5065499;28;20057;-66
2023/08/27 03:04:11;;;;;;;2.55;2.35;;;;;;;16.74;72.49;100790.63;5068678;28;20037;-66
2023/08/27 03:06:36;;;;;;;5.10;2.13;;;;;;;16.78;72.95;100802.91;5053625;28;20025;-66
2023/08/27 03:09:02;;;;;;;2.72;2.40;;;;;;;16.76;73.43;100791.13;5054547;28;20029;-67
2023/08/27 03:11:28;;;;;;;2.35;2.03;;;;;;;16.77;73.23;100794.78;5084519;28;20055;-66
2023/08/27 03:13:53;;;;;;;3.65;2.50;;;;;;;16.75;73.13;100797.06;5093625;28;20099;-66
2023/08/27 03:16:18;;;;;;;3.05;2.40;;;;;;;16.73;73.40;100793.66;5093558;28;20028;-66
2023/08/27 03:18:43;;;;;;;3.58;2.20;;;;;;;16.75;73.08;100799.84;5092519;28;20051;-66
2023/08/27 03:21:09;;;;;;;2.90;2.45;;;;;;;16.78;73.40;100808.50;5068292;28;20112;-66
2023/08/27 03:23:35;;;;;;;3.35;2.55;;;;;;;16.76;73.47;100799.53;5053149;28;20404;-66
2023/08/27 03:26:01;;;;;;;2.95;2.05;;;;;;;16.80;72.80;100803.44;5052548;28;20029;-66
2023/08/27 03:28:27;;;;;;;4.13;2.10;;;;;;;16.85;72.90;100814.59;5053054;28;20063;-66
2023/08/27 03:30:52;;;;;;;2.70;2.30;;;;;;;16.84;72.92;100812.91;5053673;28;20032;-66
2023/08/27 03:33:17;;;;;;;4.90;2.88;;;;;;;16.77;73.09;100805.97;5084755;28;20036;-66
2023/08/27 03:35:55;;;;;;;3.42;2.47;;;;;;;16.81;73.30;100802.28;5070753;28;20068;-67
2023/08/27 03:38:20;;;;;;;4.32;2.85;;;;;;;16.75;73.64;100794.25;5052083;28;20039;-66
2023/08/27 03:40:52;;;;;;;4.72;2.78;;;;;;;16.75;73.44;100791.44;5052182;28;20037;-66
2023/08/27 03:43:17;;;;;;;4.45;2.60;;;;;;;16.73;73.47;100782.44;5051390;28;20458;-66
2023/08/27 03:45:43;;;;;;;4.40;2.55;;;;;;;16.77;73.50;100778.78;5057585;28;20035;-66
2023/08/27 03:48:08;;;;;;;2.92;2.25;;;;;;;16.73;73.37;100774.91;5092851;28;20028;-66
2023/08/27 03:50:37;;;;;;;3.65;2.25;;;;;;;16.73;74.08;100774.03;5069353;28;20059;-66
2023/08/27 03:53:03;;;;;;;4.05;2.65;;;;;;;16.66;73.61;100775.25;5051846;28;20058;-66
2023/08/27 03:55:29;;;;;;;3.85;2.35;;;;;;;16.67;73.75;100767.66;5060259;28;20032;-66
2023/08/27 03:57:54;;;;;;;4.65;2.30;;;;;;;16.71;73.78;100767.91;5062167;28;20477;-66
2023/08/27 04:00:20;;;;;;;4.22;2.40;;;;;;;16.65;74.26;100764.31;5053362;28;20032;-66
2023/08/27 04:02:45;;;;;;;3.95;2.38;;;;;;;16.65;73.67;100759.53;5057525;28;20028;-67
2023/08/27 04:05:11;;;;;;;4.78;2.33;;;;;;;16.69;73.95;100757.81;5061610;28;20037;-67
2023/08/27 04:07:36;;;;;;;3.97;2.20;;;;;;;16.74;73.50;100761.72;5051579;28;20029;-67
2023/08/27 04:10:04;;;;;;;4.45;2.17;;;;;;;16.66;73.68;100771.56;5052274;28;20021;-67
2023/08/27 04:12:30;;;;;;;3.65;2.30;;;;;;;16.71;73.94;100767.91;5052742;28;20064;-67
2023/08/27 04:14:56;;;;;;;4.35;2.40;;;;;;;16.65;73.89;100755.91;5059125;28;20028;-67
2023/08/27 04:17:21;;;;;;;3.85;2.20;;;;;;;16.67;74.40;100760.09;5068380;28;20460;-67
2023/08/27 04:19:47;;;;;;;3.67;2.30;;;;;;;16.65;74.39;100767.13;5071922;28;20039;-67
2023/08/27 04:22:12;;;;;;;3.85;2.42;;;;;;;16.64;74.49;100773.84;5071277;28;20123;-67
2023/08/27 04:24:37;;;;;;;4.70;2.42;;;;;;;16.68;74.46;100777.75;5069772;28;20088;-67
2023/08/27 04:27:03;;;;;;;3.38;2.60;;;;;;;16.67;74.55;100770.47;5051848;28;20017;-66
2023/08/27 04:29:29;;;;;;;4.93;2.20;;;;;;;16.62;74.71;100770.50;5074335;28;20043;-67
2023/08/27 04:31:54;;;;;;;2.65;2.20;;;;;;;16.68;74.30;100763.72;5071872;28;20025;-66
2023/08/27 04:34:19;;;;;;;4.70;2.45;;;;;;;16.67;74.49;100773.28;5057928;28;20024;-67
2023/08/27 04:36:45;;;;;;;5.97;2.05;;;;;;;16.65;74.17;100758.72;5051163;28;20029;-67
2023/08/27 04:39:13;;;;;;;4.13;2.28;;;;;;;16.67;74.32;100760.09;5051777;28;20032;-67
2023/08/27 04:41:38;;;;;;;4.50;2.35;;;;;;;16.63;74.10;100767.41;5064581;28;20036;-67
2023/08/27 04:44:04;;;;;;;4.18;2.20;;;;;;;16.65;74.27;100765.16;5078539;28;20464;-67
2023/08/27 04:46:29;;;;;;;2.28;1.90;;;;;;;16.60;73.73;100773.63;5092066;28;20483;-67
2023/08/27 04:48:55;;;;;;;2.72;1.83;;;;;;;16.57;74.38;100768.59;5074033;28;20032;-68
2023/08/27 04:51:20;;;;;;;3.35;2.08;;;;;;;16.57;74.38;100765.78;5054036;28;20024;-67
2023/08/27 04:53:45;;;;;;;2.85;1.95;;;;;;;16.59;74.52;100773.91;5051620;28;20076;-67
2023/08/27 04:56:11;;;;;;;5.15;2.00;;;;;;;16.55;74.07;100778.44;5049155;28;20057;-67
2023/08/27 04:58:36;;;;;;;5.68;2.10;;;;;;;16.60;74.00;100789.59;5066202;28;20131;-67
2023/08/27 05:01:02;;;;;;;6.00;2.30;;;;;;;16.55;74.02;100792.47;5071781;28;20028;-67
2023/08/27 05:03:27;;;;;;;4.22;2.42;;;;;;;16.51;74.73;100792.22;5057575;28;20037;-68
2023/08/27 05:05:56;;;;;;;3.67;2.00;;;;;;;16.51;74.52;100799.78;5055681;28;20047;-67
2023/08/27 05:08:21;;;;;;;3.72;2.38;;;;;;;16.48;74.69;100798.38;5053751;28;20057;-67
2023/08/27 05:10:47;;;;;;;3.33;1.90;;;;;;;16.51;74.31;100808.19;5067716;28;20085;-67
2023/08/27 05:13:12;;;;;;;4.75;2.30;;;;;;;16.43;75.05;100796.47;5095695;28;20349;-67
2023/08/27 05:15:37;;;;;;;3.47;2.25;;;;;;;16.43;74.95;100802.06;5070847;28;20036;-67
2023/08/27 05:18:03;;;;;;;3.67;2.28;;;;;;;16.44;74.90;100803.75;5074574;28;20087;-67
2023/08/27 05:20:28;;;;;;;3.75;2.50;;;;;;;16.48;74.68;100798.38;5075384;28;20040;-67
2023/08/27 05:22:54;;;;;;;5.38;2.30;;;;;;;16.45;74.94;100793.38;5076150;28;20028;-67
2023/08/27 05:25:19;;;;;;;3.85;2.28;;;;;;;16.44;75.22;100802.91;5074858;28;20400;-67
2023/08/27 05:27:44;;;;;;;3.47;2.42;;;;;;;16.42;75.31;100793.94;5055294;28;20037;-67
2023/08/27 05:30:16;;;;;;;4.07;2.50;;;;;;;16.41;75.35;100793.13;5070444;28;20055;-67
2023/08/27 05:32:41;;;;;;;3.75;2.55;;;;;;;16.43;75.12;100785.25;5074218;28;20028;-68
2023/08/27 05:35:07;;;;;;;4.18;2.78;;;;;;;16.37;74.99;100794.00;5074063;28;20040;-67
2023/08/27 05:37:33;;;;;;;4.18;2.70;;;;;;;16.39;75.46;100795.38;5071138;28;20035;-67
2023/08/27 05:39:58;;;;;;;4.32;2.20;;;;;;;16.40;75.30;100788.66;5056029;28;20068;-67
2023/08/27 05:42:24;;;;;;;3.45;2.70;;;;;;;16.39;75.88;100789.78;5056442;28;20077;-67
2023/08/27 05:44:49;;;;;;;4.68;2.33;;;;;;;16.41;75.78;100795.91;5067006;28;20028;-68
2023/08/27 05:47:16;;;;;;;7.05;3.15;;;;;;;16.49;75.46;100793.63;5094688;28;20028;-67
2023/08/27 05:49:45;;;;;;;3.92;2.60;;;;;;;16.46;75.33;100797.84;5095325;28;20024;-67
2023/08/27 05:52:10;;;;;;;5.22;2.80;;;;;;;16.44;75.37;100792.53;5063954;28;20428;-67
2023/08/27 05:54:36;;;;;;;6.65;2.95;;;;;;;16.45;75.44;100796.16;5054199;28;20115;-67
2023/08/27 05:57:02;;;;;;;5.18;2.83;;;;;;;16.43;75.38;100795.66;5070844;28;20419;-67
2023/08/27 05:59:28;;;;;;;4.80;2.88;;;;;;;16.51;75.01;100781.00;5078072;28;20040;-67
2023/08/27 06:01:53;;;;;;;4.82;2.80;;;;;;;16.45;75.29;100787.75;5095159;28;20099;-67
2023/08/27 06:04:18;;;;;;;4.88;2.67;;;;;;;16.47;75.05;100781.88;5075998;28;20360;-67
2023/08/27 06:06:43;;;;;;;5.07;3.00;;;;;;;16.49;75.18;100783.25;5070148;28;20043;-67
2023/08/27 06:09:09;;;;;;;5.03;2.72;;;;;;;16.48;75.19;100783.56;5055251;28;20035;-67
2023/08/27 06:11:34;;;;;;;6.70;3.38;;;;;;;16.47;75.34;100776.28;5054564;28;20444;-67
2023/08/27 06:14:00;;;;;;;3.67;2.88;;;;;;;16.50;75.43;100773.69;5060091;28;20043;-67
2023/08/27 06:16:25;;;;;;;5.18;2.72;;;;;;;16.55;75.62;100778.44;5060900;28;20036;-67
2023/08/27 06:18:50;;;;;;;4.40;2.72;;;;;;;16.54;75.37;100771.97;5054144;28;20053;-67
2023/08/27 06:21:17;;;;;;;3.03;2.60;;;;;;;16.57;74.76;100768.59;5053643;28;20033;-67
2023/08/27 06:23:43;;;;;;;4.32;2.60;;;;;;;16.52;75.04;100765.00;5054407;28;20135;-67
2023/08/27 06:26:08;;;;;;;3.45;2.40;;;;;;;16.55;75.16;100767.25;5067563;28;20078;-67
2023/08/27 06:28:34;;;;;;;4.28;2.78;;;;;;;16.62;75.05;100762.09;5075218;28;20036;-68
2023/08/27 06:30:59;;;;;;;4.57;2.83;;;;;;;16.63;75.14;100756.22;5081419;28;20043;-67
2023/08/27 06:33:25;;;;;;;5.82;2.58;;;;;;;16.75;74.72;100761.44;5060709;28;22147;-67
2023/08/27 06:35:51;;;;;;;3.92;2.58;;;;;;;16.81;74.41;100762.22;5075480;28;20036;-67
2023/08/27 06:38:17;;;;;;;4.97;2.88;;;;;;;16.81;74.66;100762.22;5075616;28;20028;-65
2023/08/27 06:40:42;;;;;;;3.72;2.80;;;;;;;16.85;74.26;100760.47;5086152;28;20028;-66
2023/08/27 06:43:08;;;;;;;5.60;2.83;;;;;;;16.88;74.52;100765.50;5083242;28;20064;-65
2023/08/27 06:45:34;;;;;;;6.32;2.90;;;;;;;16.98;74.46;100762.59;5072131;28;20031;-67
2023/08/27 06:47:59;;;;;;;5.07;2.78;;;;;;;17.07;74.75;100766.41;5070902;28;20028;-67
2023/08/27 06:50:24;;;;;;;4.63;2.78;;;;;;;17.08;73.95;100772.84;5067136;28;20021;-68
2023/08/27 06:52:50;;;;;;;3.33;2.63;;;;;;;17.07;73.93;100774.81;5065200;28;20151;-68
2023/08/27 06:55:15;;;;;;;4.30;3.03;;;;;;;17.16;73.92;100766.56;5068776;28;20051;-67
2023/08/27 06:57:40;;;;;;;4.80;2.90;;;;;;;17.06;74.30;100775.97;5062857;28;20071;-68
2023/08/27 07:00:12;;;;;;;5.07;2.88;;;;;;;17.11;73.98;100769.44;5062861;28;20403;-68
2023/08/27 07:02:37;;;;;;;3.67;2.97;;;;;;;17.23;73.82;100771.81;5058898;28;20111;-68
2023/08/27 07:05:08;;;;;;;4.88;2.80;;;;;;;17.24;74.08;100779.09;5064689;28;20024;-68
2023/08/27 07:07:38;;;;;;;4.88;3.05;;;;;;;17.25;74.13;100776.00;5064158;28;20048;-67
2023/08/27 07:10:04;;;;;;;7.32;2.78;;;;;;;17.33;74.35;100783.75;5070664;28;20049;-66
2023/08/27 07:12:33;;;;;;;5.75;3.20;;;;;;;17.35;74.14;100783.44;5067755;28;20036;-67
2023/08/27 07:14:58;;;;;;;5.32;3.10;;;;;;;17.42;73.97;100784.75;5063761;28;20120;-67
2023/08/27 07:17:24;;;;;;;6.53;3.17;;;;;;;17.50;73.59;100785.22;5072600;28;20123;-67
2023/08/27 07:19:49;;;;;;;5.32;3.08;;;;;;;17.55;73.92;100785.16;5071590;28;20101;-66
2023/08/27 07:22:14;;;;;;;4.55;3.25;;;;;;;17.57;73.87;100777.28;5071103;28;20035;-68
2023/08/27 07:24:40;;;;;;;5.72;3.20;;;;;;;17.75;74.95;100779.28;5070919;28;20063;-69
2023/08/27 07:27:06;;;;;;;4.40;3.20;;;;;;;17.75;72.86;100770.03;5069207;28;20029;-67
2023/08/27 07:29:31;;;;;;;7.22;3.63;;;;;;;17.73;73.03;100772.28;5076527;28;20044;-68
2023/08/27 07:31:57;;;;;;;4.32;3.22;;;;;;;17.80;73.38;100768.00;5062843;28;20025;-66
2023/08/27 07:34:22;;;;;;;5.18;2.80;;;;;;;17.92;72.63;100778.75;5093125;28;20035;-67
2023/08/27 07:36:48;;;;;;;5.50;3.13;;;;;;;17.99;71.96;100772.75;5093122;28;20039;-66
2023/08/27 07:39:14;;;;;;;7.10;3.70;;;;;;;17.92;72.71;100775.94;5065826;28;20523;-66
2023/08/27 07:41:40;;;;;;;4.78;3.13;;;;;;;18.09;72.30;100789.44;5074522;28;20036;-67
2023/08/27 07:44:05;;;;;;;8.35;3.35;;;;;;;18.15;72.08;100779.78;5093020;28;20028;-67
2023/08/27 07:46:30;;;;;;;7.75;3.05;;;;;;;18.23;72.11;100789.47;5089367;28;20059;-66
2023/08/27 07:48:56;;;;;;;3.83;3.30;;;;;;;18.19;72.18;100791.25;5073392;28;20079;-66
2023/08/27 07:51:21;;;;;;;6.70;3.45;;;;;;;18.24;71.89;100783.59;5072634;28;20051;-66
2023/08/27 07:53:46;;;;;;;6.53;3.67;;;;;;;18.35;72.14;100784.22;5082329;28;20047;-66
2023/08/27 07:56:11;;;;;;;5.63;3.47;;;;;;;18.42;71.35;100778.22;5067409;28;20472;-66
2023/08/27 07:58:37;;;;;;;6.43;3.50;;;;;;;18.46;71.17;100788.53;5068790;28;20032;-66
2023/08/27 08:01:04;;;;;;;4.18;3.00;;;;;;;18.52;71.47;100784.50;5068450;28;20043;-67
2023/08/27 08:03:29;;;;;;;7.25;4.00;;;;;;;18.51;71.38;100776.34;5072111;28;20060;-66
2023/08/27 08:05:55;;;;;;;5.13;3.15;;;;;;;18.49;71.04;100773.03;5071532;28;20055;-66
2023/08/27 08:08:20;;;;;;;8.73;3.63;;;;;;;18.45;70.28;100769.19;5069276;28;20800;-66
2023/08/27 08:10:46;;;;;;;4.45;3.10;;;;;;;18.53;69.96;100777.72;5073369;28;20417;-67
2023/08/27 08:13:11;;;;;;;6.60;4.20;;;;;;;18.58;69.36;100771.16;5065757;28;20029;-67
2023/08/27 08:15:36;;;;;;;5.82;3.42;;;;;;;18.64;68.88;100779.22;5072684;28;20020;-66
2023/08/27 08:18:02;;;;;;;7.03;4.20;;;;;;;18.59;68.58;100772.88;5091660;28;20047;-68
2023/08/27 08:20:27;;;;;;;5.68;3.47;;;;;;;18.56;69.75;100774.31;5061385;28;20044;-71
2023/08/27 08:22:53;;;;;;;7.80;3.58;;;;;;;18.58;69.94;100782.41;5076401;28;20040;-69
2023/08/27 08:25:18;;;;;;;4.75;3.08;;;;;;;18.69;69.84;100775.47;5057723;28;20468;-67
2023/08/27 08:27:43;;;;;;;6.05;3.17;;;;;;;18.76;69.49;100777.91;5053568;28;20037;-67
2023/08/27 08:30:09;;;;;;;6.93;3.22;;;;;;;18.85;68.34;100778.84;5052585;28;20069;-66
2023/08/27 08:32:34;;;;;;;6.70;2.85;;;;;;;18.95;67.86;100781.47;5052087;28;20163;-67
2023/08/27 08:35:01;;;;;;;4.65;3.03;;;;;;;18.88;65.92;100784.69;5051378;28;20040;-67
2023/08/27 08:37:27;;;;;;;4.63;3.13;;;;;;;18.78;66.84;100781.25;5054071;28;20059;-67
2023/08/27 08:39:52;;;;;;;4.18;2.72;;;;;;;18.83;66.78;100786.78;5070474;28;20399;-67
2023/08/27 08:42:23;;;;;;;5.45;2.63;;;;;;;18.87;66.29;100785.84;5091602;28;20490;-67
2023/08/27 08:44:48;;;;;;;6.07;3.28;;;;;;;18.81;66.57;100789.06;5064244;28;20036;-67
2023/08/27 08:47:17;;;;;;;8.68;2.90;;;;;;;18.78;66.00;100781.25;5068272;28;20101;-68
2023/08/27 08:49:44;;;;;;;5.60;2.67;;;;;;;18.73;65.67;100784.97;5071160;28;20471;-67
2023/08/27 08:52:16;;;;;;;6.10;2.95;;;;;;;18.91;66.04;100783.25;5072039;28;20024;-67
2023/08/27 08:54:41;;;;;;;;;;;;;;;19.07;66.88;100779.00;5078274;28;20079;-67
2023/08/27 08:57:11;;;;;;;6.13;2.30;;;;;;;18.98;64.50;100780.00;5089205;28;20008;-68
2023/08/27 08:59:38;;;;;;;6.55;2.22;;;;;;;19.08;64.63;100780.66;5091995;28;20028;-68
2023/08/27 09:02:04;;;;;;;2.83;2.15;;;;;;;19.06;64.20;100770.84;5091310;28;20498;-68
2023/08/27 09:04:30;;;;;;;6.20;2.70;;;;;;;19.04;63.55;100771.16;5072927;28;20068;-67
2023/08/27 09:06:57;;;;;;;6.00;1.80;;;;;;;19.12;64.13;100764.81;5051719;28;20710;-67
2023/08/27 09:09:23;;;;;;;7.00;2.15;;;;;;;19.15;63.53;100765.34;5073573;28;20027;-67
2023/08/27 09:11:50;;;;;;;5.13;2.10;;;;;;;19.14;63.38;100775.78;5092058;28;20368;-67
2023/08/27 09:14:16;;;;;;;3.88;2.10;;;;;;;19.14;62.50;100758.88;5091665;28;20036;-67
2023/08/27 09:16:41;;;;;;;5.53;1.90;;;;;;;19.22;62.73;100763.78;5091119;28;20039;-67
2023/08/27 09:19:07;;;;;;;4.68;2.00;;;;;;;19.38;62.36;100762.31;5091409;28;20040;-68
2023/08/27 09:21:34;;;;;;;5.93;1.88;;;;;;;19.53;63.17;100757.47;5074729;28;20031;-67
2023/08/27 09:23:59;;;;;;;5.13;1.70;;;;;;;19.68;62.48;100754.34;5070020;28;20033;-67
2023/08/27 09:26:25;;;;;;;4.25;2.30;;;;;;;19.80;61.08;100763.06;5071492;28;20032;-67
2023/08/27 09:28:51;;;;;;;5.47;1.70;;;;;;;19.87;60.20;100754.19;5071454;28;20111;-67
2023/08/27 09:31:35;;;;;;;4.13;2.08;;;;;;;19.98;61.09;100751.97;5070772;28;20055;-67
2023/08/27 09:34:00;;;;;;;8.30;2.20;;;;;;;20.06;59.96;100748.38;5071707;28;20044;-68
2023/08/27 09:36:26;;;;;;;5.05;1.90;;;;;;;20.17;59.85;100738.53;5072374;28;20028;-67
2023/08/27 09:38:51;;;;;;;6.25;2.28;;;;;;;20.08;58.93;100740.44;5051132;28;20483;-67
2023/08/27 09:41:17;;;;;;;4.25;1.83;;;;;;;19.98;59.17;100740.69;5051510;28;20070;-68
2023/08/27 09:43:55;;;;;;;5.60;1.75;;;;;;;19.89;60.44;100731.34;5051376;28;20594;-67
2023/08/27 09:46:21;;;;;;;6.32;2.00;;;;;;;19.94;60.32;100731.22;5053859;28;20044;-67
2023/08/27 09:48:57;;;;;;;4.63;1.83;;;;;;;20.08;61.07;100729.16;5055082;28;20115;-67
2023/08/27 09:51:23;;;;;;;5.65;2.13;;;;;;;20.05;59.90;100727.00;5064305;28;20096;-67
2023/08/27 09:53:48;;;;;;;5.60;2.05;;;;;;;20.17;60.48;100720.78;5068363;28;20446;-67
2023/08/27 09:56:15;;;;;;;6.15;1.88;;;;;;;20.11;59.27;100734.97;5054935;28;20021;-67
2023/08/27 09:58:41;;;;;;;6.53;2.00;;;;;;;20.18;59.87;100730.91;5054135;28;20125;-67
2023/08/27 10:01:07;;;;;;;4.53;2.10;;;;;;;20.13;58.86;100729.03;5054870;28;20119;-67
2023/08/27 10:03:33;;;;;;;4.10;1.77;;;;;;;20.17;59.45;100735.72;5054681;28;20423;-68
2023/08/27 10:06:01;;;;;;;3.42;1.58;;;;;;;20.28;59.41;100734.28;5062493;28;20028;-67
2023/08/27 10:08:26;;;;;;;5.03;1.95;;;;;;;20.40;59.69;100741.34;5074650;28;20032;-67
2023/08/27 10:11:04;;;;;;;6.50;1.83;;;;;;;20.42;58.87;100722.94;5074722;28;20032;-67
2023/08/27 10:13:31;;;;;;;5.05;1.52;;;;;;;20.54;57.95;100736.47;5073702;28;20020;-67
2023/08/27 10:15:57;;;;;;;4.93;1.58;;;;;;;20.40;55.90;100733.72;5074773;28;20126;-67
2023/08/27 10:18:23;;;;;;;4.72;2.00;;;;;;;20.50;57.45;100724.16;5094711;28;20121;-67
2023/08/27 10:20:50;;;;;;;3.22;1.50;;;;;;;20.47;56.97;100736.06;5093939;28;20035;-67
2023/08/27 10:23:16;;;;;;;4.20;1.63;;;;;;;20.48;57.75;100734.91;5070718;28;20041;-67
2023/08/27 10:25:43;;;;;;;5.75;1.45;;;;;;;20.57;58.30;100742.28;5074413;28;20074;-67
2023/08/27 10:28:09;;;;;;;4.28;1.77;;;;;;;20.61;56.92;100721.91;5073414;28;20031;-67
2023/08/27 10:30:36;;;;;;;7.10;1.63;;;;;;;20.73;57.00;100727.78;5078349;28;20032;-67
2023/08/27 10:33:02;;;;;;;3.95;1.63;;;;;;;20.62;56.32;100720.75;5093184;28;20036;-67
2023/08/27 10:35:28;;;;;;;3.78;1.45;;;;;;;20.64;55.94;100719.28;5093838;28;20031;-67
2023/08/27 10:37:56;;;;;;;3.33;1.30;;;;;;;20.59;55.70;100720.25;5082149;28;20036;-67
2023/08/27 10:40:25;;;;;;;3.13;1.30;;;;;;;20.42;55.25;100731.38;5069460;28;20048;-67
2023/08/27 10:42:50;;;;;;;2.83;1.23;;;;;;;20.27;55.69;100735.44;5073854;28;20020;-67
2023/08/27 10:45:18;;;;;;;3.42;1.55;;;;;;;20.13;56.61;100733.84;5088120;28;20128;-67
2023/08/27 10:48:06;;;;;;;7.22;1.38;;;;;;;20.17;57.91;100744.16;5093698;28;20024;-67
2023/08/27 10:50:42;;;;;;;4.53;1.50;;;;;;;20.28;57.08;100739.94;5094215;28;20487;-67
2023/08/27 10:53:07;;;;;;;4.13;1.30;;;;;;;20.26;54.94;100744.22;5094322;28;20088;-67
2023/08/27 10:55:36;;;;;;;5.20;1.10;;;;;;;20.23;55.78;100745.69;5093396;28;20103;-67
2023/08/27 10:58:17;;;;;;;5.25;1.27;;;;;;;20.27;56.65;100743.06;5077586;28;20563;-67
2023/08/27 11:01:04;;;;;;;2.70;1.25;;;;;;;20.27;57.15;100734.59;5058451;28;20040;-66
2023/08/27 11:03:57;;;;;;;2.70;1.25;;;;;;;20.32;57.51;100740.13;5073006;28;20238;-66
2023/08/27 11:06:45;;;;;;;5.43;1.48;;;;;;;20.42;57.10;100737.03;5073739;28;20051;-67
2023/08/27 11:09:23;;;;;;;4.57;1.50;;;;;;;20.53;57.22;100730.00;5072867;28;20033;-67
2023/08/27 11:11:53;;;;;;;3.03;1.20;;;;;;;20.57;55.13;100727.38;5072165;28;20032;-68
2023/08/27 11:14:20;;;;;;;5.18;1.13;;;;;;;20.62;53.74;100737.66;5063381;28;20094;-67
2023/08/27 11:17:00;;;;;;;2.33;1.10;;;;;;;20.53;54.12;100729.16;5072924;28;20020;-67
2023/08/27 11:19:35;;;;;;;3.47;1.10;;;;;;;20.43;54.05;100743.50;5073397;28;20024;-67
2023/08/27 11:22:14;;;;;;;3.42;1.00;;;;;;;20.38;54.50;100754.91;5073368;28;20361;-67